Time;durP1;ratioP1;P1;durP2;ratioP2;P2;SDS_P1;SDS_P2;PMS_P1;PMS_P2;Temp;Humidity;BMP_temperature;BMP_pressure;BME280_temperature;BME280_humidity;BME280_pressure;Samples;Min_cycle;Max_cycle;Signal;HPM_P1;HPM_P2
2023/06/18 00:01:52;;;;;;;22.57;8.47;;;;;;;40.84;37.64;101157.22;4917543;29;20491;-88
2023/06/18 00:04:18;;;;;;;22.33;8.03;;;;;;;40.88;37.91;101156.25;4918034;29;20449;-88
2023/06/18 00:06:44;;;;;;;20.00;7.13;;;;;;;40.62;37.85;101145.34;4917910;29;20793;-88
2023/06/18 00:09:10;;;;;;;20.93;7.30;;;;;;;40.68;37.72;101146.00;4917714;29;20489;-87
2023/06/18 00:11:36;;;;;;;14.80;7.30;;;;;;;40.70;37.29;101122.00;4917260;29;20853;-86
2023/06/18 00:14:02;;;;;;;17.83;7.43;;;;;;;40.84;37.67;101141.69;4917846;29;20461;-88
2023/06/18 00:16:28;;;;;;;14.73;6.30;;;;;;;40.74;37.34;101140.09;4917370;29;20807;-89
2023/06/18 00:18:54;;;;;;;19.80;8.90;;;;;;;40.96;37.09;101146.53;4917993;29;20492;-87
2023/06/18 00:21:21;;;;;;;14.80;9.10;;;;;;;40.44;37.76;101146.41;4917187;29;20829;-86
2023/06/18 00:23:47;;;;;;;21.30;7.20;;;;;;;40.77;37.46;101135.94;4918967;29;20452;-88
2023/06/18 00:26:13;;;;;;;15.43;8.90;;;;;;;40.73;37.26;101130.31;4917249;29;20486;-86
2023/06/18 00:28:39;;;;;;;29.80;8.60;;;;;;;40.55;37.31;101113.19;4918511;29;20409;-86
2023/06/18 00:31:05;;;;;;;17.80;7.17;;;;;;;40.67;37.37;101131.59;4916811;29;20464;-86
2023/06/18 00:33:33;;;;;;;14.33;6.90;;;;;;;40.66;37.46;101121.84;4917223;29;20420;-87
2023/06/18 00:35:59;;;;;;;20.13;6.10;;;;;;;40.23;38.04;101111.69;4917133;29;20543;-86
2023/06/18 00:38:28;;;;;;;21.80;7.30;;;;;;;40.41;38.17;101117.16;4916874;29;20421;-86
2023/06/18 00:40:55;;;;;;;18.47;8.23;;;;;;;40.60;37.36;101106.00;4916743;29;20465;-86
2023/06/18 00:43:21;;;;;;;16.70;10.00;;;;;;;40.75;37.37;101108.25;4917284;29;20484;-88
2023/06/18 00:45:48;;;;;;;17.60;5.63;;;;;;;40.58;37.54;101100.91;4918477;29;20409;-86
2023/06/18 00:48:14;;;;;;;11.70;7.93;;;;;;;40.73;37.25;101102.34;4916335;29;20821;-86
2023/06/18 00:50:41;;;;;;;19.70;7.20;;;;;;;40.41;37.60;101098.13;4916726;29;20429;-86
2023/06/18 00:53:07;;;;;;;18.13;8.40;;;;;;;40.38;37.96;101093.31;4916464;29;20510;-86
2023/06/18 00:55:37;;;;;;;31.53;9.70;;;;;;;40.48;37.88;101088.41;4916619;29;20485;-88
2023/06/18 00:58:04;;;;;;;20.57;10.07;;;;;;;40.46;37.80;101081.66;4916694;29;20445;-88
2023/06/18 01:00:34;;;;;;;16.50;9.03;;;;;;;40.72;37.68;101087.94;4916909;29;21008;-88
2023/06/18 01:03:15;;;;;;;23.07;8.23;;;;;;;40.75;37.54;101095.44;4916493;29;20997;-87
2023/06/18 01:05:47;;;;;;;13.20;7.73;;;;;;;40.86;37.20;101095.13;4916661;29;20451;-86
2023/06/18 01:08:14;;;;;;;16.80;8.43;;;;;;;40.77;37.39;101095.13;4916222;29;20900;-86
2023/06/18 01:10:41;;;;;;;23.63;7.90;;;;;;;40.63;36.96;101098.00;4916312;29;20444;-86
2023/06/18 01:13:14;;;;;;;18.23;7.47;;;;;;;40.55;37.52;101093.38;4916453;29;20421;-86
2023/06/18 01:15:41;;;;;;;19.70;7.00;;;;;;;40.66;37.31;101083.78;4916377;29;20480;-86
2023/06/18 01:18:07;;;;;;;18.30;7.57;;;;;;;40.49;37.68;101090.00;4917898;29;20435;-88
2023/06/18 01:20:41;;;;;;;18.90;9.00;;;;;;;40.70;37.43;101092.06;4917649;29;20500;-86
2023/06/18 01:23:17;;;;;;;18.63;7.10;;;;;;;40.39;37.60;101073.16;4916113;29;20429;-86
2023/06/18 01:25:45;;;;;;;15.90;6.73;;;;;;;40.37;38.21;101091.72;4917524;29;20488;-86
2023/06/18 01:28:13;;;;;;;18.57;7.60;;;;;;;40.39;38.55;101090.28;4916222;29;20425;-86
2023/06/18 01:30:39;;;;;;;19.13;7.87;;;;;;;40.52;37.91;101094.00;4915885;29;20445;-86
2023/06/18 01:33:09;;;;;;;16.03;8.70;;;;;;;40.65;37.82;101084.09;4915909;29;20850;-88
2023/06/18 01:35:35;;;;;;;19.83;8.10;;;;;;;40.78;37.58;101075.78;4917661;29;20886;-86
2023/06/18 01:38:13;;;;;;;20.80;8.80;;;;;;;40.75;37.51;101084.56;4915676;29;20520;-86
2023/06/18 01:41:00;;;;;;;21.90;8.43;;;;;;;40.85;37.79;101077.22;4915267;29;20464;-86
2023/06/18 01:43:29;;;;;;;16.80;8.53;;;;;;;40.96;37.18;101095.63;4915678;29;20445;-86
2023/06/18 01:46:03;;;;;;;17.40;6.90;;;;;;;41.03;37.23;101089.69;4915535;29;20480;-86
2023/06/18 01:48:37;;;;;;;18.20;7.10;;;;;;;41.11;36.76;101088.88;4915584;29;20572;-86
2023/06/18 01:51:05;;;;;;;17.27;7.33;;;;;;;40.98;37.27;101096.09;4915668;29;20452;-87
2023/06/18 01:53:35;;;;;;;19.93;11.50;;;;;;;40.81;37.72;101094.16;4915600;29;20508;-86
2023/06/18 01:56:02;;;;;;;16.30;7.30;;;;;;;40.83;37.77;101088.41;4915545;29;20409;-86
2023/06/18 01:58:33;;;;;;;21.47;7.37;;;;;;;40.88;37.73;101085.50;4915504;29;20463;-86
2023/06/18 02:00:59;;;;;;;15.07;8.07;;;;;;;40.82;37.43;101078.63;4915412;29;20915;-87
2023/06/18 02:03:25;;;;;;;16.07;8.80;;;;;;;40.86;37.36;101084.25;4915269;29;20453;-86
2023/06/18 02:05:52;;;;;;;17.90;8.30;;;;;;;40.70;37.72;101079.31;4915324;29;20772;-86
2023/06/18 02:08:18;;;;;;;17.63;6.83;;;;;;;40.85;37.69;101078.00;4915046;29;20519;-86
2023/06/18 02:10:44;;;;;;;18.00;6.50;;;;;;;40.75;38.15;101073.69;4916384;29;20523;-86
2023/06/18 02:13:10;;;;;;;18.10;6.77;;;;;;;40.65;37.97;101071.31;4915371;29;20951;-86
2023/06/18 02:15:37;;;;;;;13.97;6.30;;;;;;;40.71;37.78;101074.66;4914909;29;20432;-86
2023/06/18 02:18:03;;;;;;;20.00;8.00;;;;;;;40.77;37.81;101070.66;4915289;29;20449;-87
2023/06/18 02:20:29;;;;;;;18.53;7.20;;;;;;;40.78;37.46;101067.63;4915110;29;20452;-87
2023/06/18 02:22:55;;;;;;;19.43;8.63;;;;;;;40.79;37.56;101073.84;4915330;29;20443;-86
2023/06/18 02:25:28;;;;;;;24.53;8.17;;;;;;;40.78;37.41;101062.16;4914867;29;20449;-86
2023/06/18 02:28:01;;;;;;;19.43;6.70;;;;;;;40.85;37.24;101063.59;4915109;29;20433;-86
2023/06/18 02:30:31;;;;;;;15.60;8.70;;;;;;;40.70;37.16;101067.59;4915733;29;20429;-88
2023/06/18 02:32:58;;;;;;;12.77;7.13;;;;;;;40.63;37.39;101070.81;4915023;29;21001;-86
2023/06/18 02:35:25;;;;;;;18.93;8.00;;;;;;;40.34;37.72;101060.53;4915056;29;20441;-86
2023/06/18 02:37:52;;;;;;;19.13;7.90;;;;;;;40.39;38.03;101062.28;4914910;29;20465;-86
2023/06/18 02:40:18;;;;;;;17.90;8.70;;;;;;;40.60;37.35;101063.31;4914940;29;20468;-86
2023/06/18 02:42:47;;;;;;;16.80;7.57;;;;;;;40.58;37.35;101062.00;4915317;29;20517;-88
2023/06/18 02:45:18;;;;;;;17.03;8.00;;;;;;;40.53;37.88;101061.06;4916381;29;20413;-86
2023/06/18 02:47:44;;;;;;;20.23;9.63;;;;;;;40.50;37.97;101069.84;4914988;29;20440;-86
2023/06/18 02:50:11;;;;;;;12.87;6.63;;;;;;;40.65;37.45;101057.72;4915327;29;20888;-89
2023/06/18 02:52:38;;;;;;;24.03;8.93;;;;;;;40.48;37.86;101069.38;4917722;29;20429;-88
2023/06/18 02:55:06;;;;;;;19.80;9.20;;;;;;;40.52;38.27;101056.75;4919087;29;20989;-87
2023/06/18 02:57:32;;;;;;;16.27;7.00;;;;;;;40.60;37.90;101059.78;4920110;29;20398;-86
2023/06/18 02:59:58;;;;;;;17.20;7.30;;;;;;;40.61;37.62;101055.94;4918605;29;20465;-86
2023/06/18 03:02:25;;;;;;;15.27;7.17;;;;;;;40.54;37.54;101054.50;4918360;29;20432;-86
2023/06/18 03:04:51;;;;;;;15.33;7.33;;;;;;;40.60;37.69;101052.44;4920373;29;20161;-88
2023/06/18 03:07:17;;;;;;;30.80;11.93;;;;;;;40.51;38.06;101068.72;4918723;29;20938;-87
2023/06/18 03:09:43;;;;;;;25.13;10.30;;;;;;;40.72;37.63;101060.75;4918515;29;20424;-86
2023/06/18 03:12:11;;;;;;;13.50;8.70;;;;;;;40.64;37.60;101058.00;4918435;29;20455;-86
2023/06/18 03:14:37;;;;;;;16.80;8.57;;;;;;;40.76;37.44;101067.16;4920091;29;20405;-88
2023/06/18 03:17:03;;;;;;;14.93;7.57;;;;;;;40.69;37.54;101055.91;4918590;29;20431;-87
2023/06/18 03:19:29;;;;;;;23.60;8.37;;;;;;;40.80;37.06;101072.72;4918277;29;20421;-86
2023/06/18 03:21:55;;;;;;;21.47;9.23;;;;;;;40.84;37.03;101062.00;4918390;29;20830;-86
2023/06/18 03:24:22;;;;;;;17.20;7.87;;;;;;;40.70;37.33;101060.28;4918938;29;20440;-88
2023/06/18 03:26:48;;;;;;;14.90;6.63;;;;;;;40.56;37.52;101073.22;4918847;29;20934;-89
2023/06/18 03:29:14;;;;;;;18.20;6.57;;;;;;;40.85;37.32;101058.16;4920038;29;20408;-88
2023/06/18 03:31:40;;;;;;;13.37;6.50;;;;;;;40.73;37.45;101067.78;4919729;29;20464;-86
2023/06/18 03:34:07;;;;;;;19.40;8.37;;;;;;;40.55;37.36;101058.00;4918307;29;20420;-86
2023/06/18 03:36:43;;;;;;;15.57;6.53;;;;;;;40.66;37.23;101053.88;4918087;29;21049;-86
2023/06/18 03:39:09;;;;;;;20.23;7.77;;;;;;;40.71;37.12;101064.59;4918230;29;20922;-88
2023/06/18 03:41:36;;;;;;;21.57;9.03;;;;;;;40.74;37.41;101063.94;4918320;29;20460;-88
2023/06/18 03:44:03;;;;;;;14.83;7.47;;;;;;;40.81;37.05;101066.94;4918074;29;20989;-86
2023/06/18 03:46:30;;;;;;;11.73;6.50;;;;;;;40.77;37.06;101063.31;4917819;29;20925;-86
2023/06/18 03:48:56;;;;;;;14.87;7.97;;;;;;;40.71;37.20;101067.31;4917851;29;20413;-86
2023/06/18 03:51:22;;;;;;;22.50;10.80;;;;;;;40.80;36.47;101056.41;4918028;29;20491;-86
2023/06/18 03:53:48;;;;;;;19.20;8.00;;;;;;;40.77;37.05;101055.13;4917814;29;20846;-86
2023/06/18 03:56:14;;;;;;;14.60;6.47;;;;;;;40.76;36.82;101075.31;4917623;29;20421;-86
2023/06/18 03:58:40;;;;;;;16.53;6.53;;;;;;;40.73;37.09;101062.34;4917948;29;20421;-88
2023/06/18 04:01:07;;;;;;;13.23;7.07;;;;;;;40.83;37.22;101061.22;4917780;29;20488;-87
2023/06/18 04:03:33;;;;;;;16.33;7.00;;;;;;;40.78;37.49;101067.63;4917065;29;20204;-86
2023/06/18 04:05:59;;;;;;;11.90;5.63;;;;;;;40.81;36.71;101068.88;4917466;29;20520;-86
2023/06/18 04:08:27;;;;;;;16.40;6.80;;;;;;;40.69;36.91;101080.41;4917474;29;20436;-86
2023/06/18 04:10:55;;;;;;;20.67;8.30;;;;;;;40.64;36.95;101085.19;4917430;29;20472;-86
2023/06/18 04:13:21;;;;;;;16.93;6.57;;;;;;;40.64;36.88;101074.31;4917403;29;20850;-86
2023/06/18 04:15:47;;;;;;;13.80;6.23;;;;;;;40.59;37.42;101077.22;4917767;29;20527;-87
2023/06/18 04:18:14;;;;;;;14.37;6.27;;;;;;;40.22;37.66;101073.97;4917277;29;20879;-86
2023/06/18 04:20:39;;;;;;;15.00;6.47;;;;;;;40.43;37.09;101080.38;4917067;29;20469;-86
2023/06/18 04:23:06;;;;;;;13.90;7.17;;;;;;;40.55;37.01;101077.84;4917467;29;20439;-86
2023/06/18 04:25:32;;;;;;;18.73;6.90;;;;;;;40.46;37.38;101073.50;4917213;29;20429;-86
2023/06/18 04:27:59;;;;;;;10.57;5.60;;;;;;;40.61;36.94;101088.56;4916936;29;20441;-88
2023/06/18 04:30:25;;;;;;;11.93;5.87;;;;;;;40.53;37.56;101085.53;4917209;29;20453;-88
2023/06/18 04:32:51;;;;;;;14.30;5.73;;;;;;;40.49;37.51;101090.00;4917211;29;20516;-88
2023/06/18 04:35:17;;;;;;;16.37;6.33;;;;;;;40.35;37.60;101077.66;4916863;29;20452;-86
2023/06/18 04:37:43;;;;;;;15.27;7.50;;;;;;;40.49;37.42;101081.84;4917003;29;20572;-86
2023/06/18 04:40:10;;;;;;;14.70;6.50;;;;;;;40.43;37.50;101074.94;4916663;29;20465;-86
2023/06/18 04:42:36;;;;;;;11.97;5.60;;;;;;;40.46;37.44;101085.19;4916662;29;20192;-86
2023/06/18 04:45:03;;;;;;;16.30;6.47;;;;;;;40.63;37.73;101086.31;4916643;29;21006;-86
2023/06/18 04:47:29;;;;;;;15.00;7.00;;;;;;;40.54;37.39;101091.78;4916560;29;20477;-86
2023/06/18 04:49:55;;;;;;;11.23;6.33;;;;;;;40.05;38.28;101085.59;4916770;29;20516;-86
2023/06/18 04:52:22;;;;;;;19.57;8.20;;;;;;;40.07;38.34;101090.69;4918170;29;20408;-86
2023/06/18 04:54:47;;;;;;;14.83;5.37;;;;;;;40.17;38.24;101080.34;4916406;29;20420;-86
2023/06/18 04:57:14;;;;;;;15.13;7.80;;;;;;;40.35;38.07;101088.53;4916307;29;20464;-86
2023/06/18 04:59:41;;;;;;;16.10;7.70;;;;;;;40.12;38.74;101085.91;4916605;29;20213;-86
2023/06/18 05:02:07;;;;;;;15.20;6.03;;;;;;;40.25;38.23;101074.09;4916510;29;20425;-88
2023/06/18 05:04:33;;;;;;;17.83;6.33;;;;;;;40.28;38.04;101078.13;4916736;29;20861;-88
2023/06/18 05:06:59;;;;;;;10.53;5.93;;;;;;;40.25;38.35;101079.53;4916963;29;20425;-87
2023/06/18 05:09:29;;;;;;;17.00;6.53;;;;;;;40.29;38.34;101096.03;4916723;29;20745;-86
2023/06/18 05:11:55;;;;;;;22.47;7.80;;;;;;;40.08;38.51;101084.94;4916255;29;20807;-86
2023/06/18 05:14:22;;;;;;;13.97;6.30;;;;;;;40.10;38.69;101090.88;4915573;29;20433;-86
2023/06/18 05:16:48;;;;;;;19.37;7.10;;;;;;;40.22;38.33;101091.06;4916230;29;20495;-88
2023/06/18 05:19:14;;;;;;;23.60;9.47;;;;;;;39.68;39.53;101090.38;4916697;29;20425;-89
2023/06/18 05:21:40;;;;;;;18.73;8.60;;;;;;;39.94;39.19;101089.66;4916214;29;21002;-87
2023/06/18 05:24:07;;;;;;;17.63;7.63;;;;;;;40.22;38.51;101096.50;4915810;29;20527;-86
2023/06/18 05:26:34;;;;;;;12.13;7.20;;;;;;;40.32;38.27;101097.28;4916115;29;20177;-86
2023/06/18 05:29:00;;;;;;;14.00;7.03;;;;;;;39.87;38.90;101102.91;4915940;29;20973;-86
2023/06/18 05:31:28;;;;;;;13.47;5.80;;;;;;;40.03;38.48;101104.88;4916222;29;20468;-89
2023/06/18 05:33:54;;;;;;;16.07;8.60;;;;;;;40.23;38.07;101119.84;4915865;29;20433;-86
2023/06/18 05:36:24;;;;;;;22.60;6.70;;;;;;;40.27;38.51;101122.72;4915842;29;20432;-86
2023/06/18 05:38:51;;;;;;;16.07;7.53;;;;;;;40.45;38.12;101123.53;4917436;29;20780;-86
2023/06/18 05:41:18;;;;;;;16.30;8.70;;;;;;;40.50;38.12;101124.22;4915708;29;20542;-86
2023/06/18 05:43:44;;;;;;;19.43;6.37;;;;;;;40.08;38.56;101136.56;4915848;29;20417;-86
2023/06/18 05:46:10;;;;;;;11.67;5.73;;;;;;;39.88;38.84;101129.75;4915521;29;20488;-87
2023/06/18 05:48:36;;;;;;;12.40;6.03;;;;;;;39.77;39.31;101117.56;4915621;29;20421;-86
2023/06/18 05:51:02;;;;;;;12.83;5.27;;;;;;;40.12;38.68;101129.38;4915698;29;20913;-86
2023/06/18 05:53:28;;;;;;;14.43;8.00;;;;;;;40.33;38.51;101126.91;4916109;29;20188;-87
2023/06/18 05:55:54;;;;;;;26.97;8.30;;;;;;;40.27;38.66;101120.81;4915556;29;20856;-87
2023/06/18 05:58:21;;;;;;;16.83;8.33;;;;;;;40.26;38.67;101134.69;4915533;29;20180;-87
2023/06/18 06:00:47;;;;;;;16.17;6.40;;;;;;;40.11;39.24;101133.22;4915246;29;20563;-86
2023/06/18 06:03:13;;;;;;;13.30;6.77;;;;;;;40.23;38.41;101141.56;4915341;29;21550;-86
2023/06/18 06:05:39;;;;;;;14.90;7.83;;;;;;;39.85;39.63;101141.25;4915418;29;20564;-86
2023/06/18 06:08:07;;;;;;;14.50;8.77;;;;;;;39.81;39.15;101158.47;4914644;29;20437;-86
2023/06/18 06:10:36;;;;;;;18.43;7.40;;;;;;;39.77;39.56;101163.72;4914391;29;20444;-86
2023/06/18 06:13:03;;;;;;;12.37;6.87;;;;;;;40.15;39.12;101174.16;4914389;29;20425;-86
2023/06/18 06:15:30;;;;;;;16.63;6.10;;;;;;;40.20;38.77;101169.38;4914932;29;20429;-86
2023/06/18 06:17:56;;;;;;;13.77;6.70;;;;;;;39.94;39.41;101193.69;4913346;29;20444;-86
2023/06/18 06:20:23;;;;;;;17.60;8.10;;;;;;;40.15;38.93;101180.41;4914761;29;20449;-86
2023/06/18 06:22:49;;;;;;;16.20;7.20;;;;;;;40.44;38.43;101192.63;4914590;29;20883;-86
2023/06/18 06:25:18;;;;;;;15.17;7.57;;;;;;;40.54;38.32;101217.66;4914267;29;20525;-85
2023/06/18 06:27:45;;;;;;;22.23;8.03;;;;;;;40.64;38.59;101227.44;4914973;29;20427;-86
2023/06/18 06:30:18;;;;;;;17.10;8.57;;;;;;;40.19;38.68;101221.31;4915193;29;20421;-86
2023/06/18 06:32:44;;;;;;;13.47;6.60;;;;;;;40.41;38.79;101226.69;4925567;29;20503;-85
2023/06/18 06:35:10;;;;;;;19.33;6.67;;;;;;;40.39;38.85;101237.09;4915092;29;20441;-88
2023/06/18 06:37:36;;;;;;;16.07;7.33;;;;;;;40.15;39.28;101236.69;4915430;29;20447;-85
2023/06/18 06:40:03;;;;;;;15.90;8.43;;;;;;;40.31;38.71;101237.03;4914955;29;21072;-88
2023/06/18 06:42:29;;;;;;;20.30;9.47;;;;;;;40.36;38.80;101245.88;4915312;29;20421;-88
2023/06/18 06:44:55;;;;;;;13.73;6.40;;;;;;;40.05;38.96;101250.53;4915050;29;20429;-86
2023/06/18 06:47:21;;;;;;;19.50;6.60;;;;;;;40.13;38.62;101249.75;4914082;29;20416;-88
2023/06/18 06:49:47;;;;;;;16.43;7.10;;;;;;;40.07;38.88;101245.56;4913216;29;20224;-87
2023/06/18 06:52:13;;;;;;;18.33;7.40;;;;;;;40.35;38.42;101259.78;4913513;29;20184;-85
2023/06/18 06:54:39;;;;;;;11.87;7.03;;;;;;;40.07;39.13;101249.09;4913820;29;20421;-87
2023/06/18 06:57:06;;;;;;;24.13;8.60;;;;;;;40.08;39.22;101261.56;4912637;29;20775;-86
2023/06/18 06:59:32;;;;;;;20.67;8.47;;;;;;;40.08;39.33;101252.59;4915264;29;20185;-87
2023/06/18 07:01:58;;;;;;;19.83;8.10;;;;;;;40.35;38.70;101262.50;4913771;29;20457;-84
2023/06/18 07:04:23;;;;;;;19.73;7.90;;;;;;;40.15;39.28;101258.41;4914484;29;20479;-87
2023/06/18 07:06:50;;;;;;;23.50;8.90;;;;;;;40.16;39.21;101270.88;4912486;29;20417;-85
2023/06/18 07:09:16;;;;;;;24.17;9.50;;;;;;;40.14;39.39;101273.88;4912995;29;20185;-84
2023/06/18 07:11:42;;;;;;;17.07;8.57;;;;;;;40.13;39.37;101282.38;4913304;29;20496;-83
2023/06/18 07:14:08;;;;;;;16.53;7.17;;;;;;;40.18;38.83;101284.94;4914072;29;20503;-84
2023/06/18 07:16:34;;;;;;;15.13;7.87;;;;;;;40.23;38.90;101282.09;4913331;29;20460;-82
2023/06/18 07:19:01;;;;;;;19.73;8.77;;;;;;;40.33;38.70;101281.00;4913461;29;20295;-79
2023/06/18 07:21:36;;;;;;;16.80;7.87;;;;;;;40.42;38.95;101281.88;4915123;29;20526;-85
2023/06/18 07:24:02;;;;;;;24.30;8.87;;;;;;;40.65;38.52;101271.75;4903801;29;20519;-82
2023/06/18 07:26:28;;;;;;;18.27;7.20;;;;;;;40.36;38.93;101278.47;4914511;29;20487;-84
2023/06/18 07:28:55;;;;;;;28.57;10.27;;;;;;;40.66;38.78;101279.59;4914586;29;20950;-84
2023/06/18 07:31:21;;;;;;;13.93;7.13;;;;;;;40.72;38.77;101263.94;4913989;29;20465;-83
2023/06/18 07:33:47;;;;;;;22.47;6.67;;;;;;;40.43;39.01;101270.66;4915170;29;20503;-84
2023/06/18 07:36:12;;;;;;;16.27;7.70;;;;;;;40.54;38.94;101265.78;4914552;29;20512;-83
2023/06/18 07:38:38;;;;;;;19.97;10.20;;;;;;;40.20;39.33;101261.78;4915958;29;20578;-84
2023/06/18 07:41:04;;;;;;;26.50;7.90;;;;;;;40.26;39.25;101268.69;4917259;29;20197;-83
2023/06/18 07:43:30;;;;;;;17.67;8.30;;;;;;;40.32;39.16;101268.53;4917261;29;20429;-84
2023/06/18 07:45:57;;;;;;;14.80;7.13;;;;;;;40.56;38.72;101263.53;4916778;29;20264;-87
2023/06/18 07:48:22;;;;;;;12.77;5.60;;;;;;;40.75;38.64;101274.16;4916234;29;20919;-87
2023/06/18 07:50:48;;;;;;;20.10;8.60;;;;;;;40.52;38.64;101277.00;4917234;29;20500;-86
2023/06/18 07:53:14;;;;;;;15.87;7.00;;;;;;;40.05;39.44;101283.13;4918129;29;20173;-84
2023/06/18 07:55:40;;;;;;;22.87;7.77;;;;;;;40.51;38.69;101278.06;4917108;29;20413;-87
2023/06/18 07:58:06;;;;;;;14.63;8.60;;;;;;;40.54;38.73;101276.66;4918703;29;20428;-86
2023/06/18 08:00:32;;;;;;;20.90;9.00;;;;;;;40.75;38.53;101274.97;4919447;29;20555;-87
2023/06/18 08:03:00;;;;;;;16.63;8.00;;;;;;;40.44;38.87;101274.19;4917994;29;20448;-82
2023/06/18 08:05:26;;;;;;;15.10;7.70;;;;;;;40.58;38.44;101291.25;4917146;29;20187;-87
2023/06/18 08:07:52;;;;;;;20.50;9.13;;;;;;;40.60;38.81;101283.56;4916521;29;20921;-84
2023/06/18 08:10:18;;;;;;;18.37;9.20;;;;;;;40.63;38.72;101301.16;4917107;29;20200;-87
2023/06/18 08:12:44;;;;;;;23.23;8.57;;;;;;;40.57;38.74;101283.38;4924144;29;20460;-85
2023/06/18 08:15:10;;;;;;;18.33;8.17;;;;;;;40.39;39.07;101294.19;4917446;29;20930;-85
2023/06/18 08:17:36;;;;;;;22.07;9.37;;;;;;;40.12;39.35;101270.69;4916584;29;20205;-85
2023/06/18 08:20:04;;;;;;;14.87;7.63;;;;;;;40.61;38.33;101282.44;4917486;29;20880;-87
2023/06/18 08:22:30;;;;;;;18.97;9.83;;;;;;;40.61;38.36;101290.59;4917276;29;21032;-87
2023/06/18 08:24:56;;;;;;;12.80;5.90;;;;;;;40.74;38.05;101292.41;4917228;29;20441;-86
2023/06/18 08:27:22;;;;;;;31.67;11.83;;;;;;;40.23;39.13;101293.78;4917323;29;20177;-84
2023/06/18 08:29:48;;;;;;;23.47;8.50;;;;;;;40.76;38.49;101300.25;4917180;29;20176;-86
2023/06/18 08:32:14;;;;;;;19.30;7.83;;;;;;;40.64;37.86;101295.44;4916203;29;20613;-85
2023/06/18 08:34:42;;;;;;;21.93;11.17;;;;;;;40.61;38.65;101301.47;4917527;29;20614;-85
2023/06/18 08:37:12;;;;;;;19.23;9.13;;;;;;;40.89;38.33;101301.25;4916837;29;20319;-85
2023/06/18 08:39:38;;;;;;;15.83;9.73;;;;;;;41.12;37.58;101308.19;4916591;29;20429;-84
2023/06/18 08:42:06;;;;;;;12.40;6.60;;;;;;;40.88;38.08;101302.34;4916834;29;20488;-85
2023/06/18 08:44:34;;;;;;;12.23;7.17;;;;;;;40.77;37.51;101315.47;4916758;29;20425;-84
2023/06/18 08:47:03;;;;;;;12.50;7.10;;;;;;;40.77;38.45;101313.53;4913460;29;20876;-86
2023/06/18 08:49:33;;;;;;;23.67;9.57;;;;;;;41.01;37.97;101306.91;4898312;29;20433;-87
2023/06/18 08:52:09;;;;;;;16.30;7.77;;;;;;;41.03;38.02;101310.13;4907445;29;20466;-86
2023/06/18 08:54:37;;;;;;;13.57;6.77;;;;;;;40.87;38.50;101298.03;4916800;29;20460;-86
2023/06/18 08:57:34;;;;;;;14.60;6.60;;;;;;;40.83;38.52;101310.69;4917044;29;20425;-87
2023/06/18 09:00:01;;;;;;;13.90;6.30;;;;;;;40.84;37.95;101309.56;4916578;29;20421;-86
2023/06/18 09:02:27;;;;;;;15.13;7.90;;;;;;;40.97;37.82;101316.81;4916466;29;20444;-85
2023/06/18 09:04:55;;;;;;;19.00;9.47;;;;;;;41.01;37.80;101315.09;4916979;29;20425;-87
2023/06/18 09:07:23;;;;;;;23.60;10.57;;;;;;;41.05;37.96;101307.88;4918065;29;20511;-88
2023/06/18 09:09:50;;;;;;;33.97;13.93;;;;;;;40.80;37.40;101309.38;4917537;29;20425;-86
2023/06/18 09:12:15;;;;;;;15.10;7.10;;;;;;;40.60;37.86;101318.91;4916656;29;20417;-86
2023/06/18 09:14:42;;;;;;;17.57;10.40;;;;;;;40.67;38.47;101318.47;4916587;29;20432;-87
2023/06/18 09:17:08;;;;;;;13.57;7.27;;;;;;;41.12;37.21;101313.63;4916153;29;20186;-86
2023/06/18 09:19:34;;;;;;;18.57;7.20;;;;;;;41.04;37.56;101292.66;4916611;29;20429;-86
2023/06/18 09:22:17;;;;;;;16.50;8.03;;;;;;;41.08;37.54;101282.75;4916044;29;20559;-87
2023/06/18 09:24:43;;;;;;;17.67;7.73;;;;;;;41.04;37.87;101288.03;4916447;29;20425;-87
2023/06/18 09:27:09;;;;;;;21.73;9.07;;;;;;;41.16;37.55;101262.09;4916607;29;20428;-86
2023/06/18 09:29:43;;;;;;;15.10;7.97;;;;;;;41.39;37.02;101290.81;4916047;29;20477;-85
2023/06/18 09:32:14;;;;;;;17.00;6.83;;;;;;;40.88;37.57;101292.28;4915256;29;20481;-85
2023/06/18 09:34:40;;;;;;;15.00;8.07;;;;;;;41.22;37.30;101288.03;4915646;29;20804;-85
2023/06/18 09:37:08;;;;;;;17.10;7.23;;;;;;;41.29;37.47;101291.09;4915871;29;20425;-86
2023/06/18 09:39:38;;;;;;;18.60;7.80;;;;;;;41.44;36.86;101298.81;4914830;29;20954;-85
2023/06/18 09:42:11;;;;;;;13.40;8.53;;;;;;;41.08;37.51;101310.75;4918563;29;20472;-83
2023/06/18 09:44:37;;;;;;;16.00;8.23;;;;;;;40.74;38.33;101310.63;4918977;29;20504;-88
2023/06/18 09:47:11;;;;;;;12.73;8.87;;;;;;;40.86;37.98;101297.22;4920257;29;20416;-88
2023/06/18 09:49:37;;;;;;;16.40;8.00;;;;;;;41.21;37.35;101295.41;4915350;29;20421;-84
2023/06/18 09:52:05;;;;;;;14.73;7.10;;;;;;;41.38;37.30;101296.59;4915729;29;20420;-84
2023/06/18 09:54:43;;;;;;;15.73;7.77;;;;;;;41.23;37.11;101287.72;4900015;29;20429;-84
2023/06/18 09:57:11;;;;;;;21.83;8.37;;;;;;;41.35;37.09;101284.41;4897127;29;20924;-82
